Time;durP1;ratioP1;P1;durP2;ratioP2;P2;SDS_P1;SDS_P2;PMS_P1;PMS_P2;Temp;Humidity;BMP_temperature;BMP_pressure;BME280_temperature;BME280_humidity;BME280_pressure;Samples;Min_cycle;Max_cycle;Signal;HPM_P1;HPM_P2
2021/05/07 00:00:36;;;;;;;2.15;1.73;;;;;;;;;;5082095;28;20143;-53
2021/05/07 00:03:01;;;;;;;2.65;1.65;;;;;;;;;;5084378;28;20032;-54
2021/05/07 00:05:26;;;;;;;1.98;1.60;;;;;;;;;;5078422;28;20106;-52
2021/05/07 00:07:52;;;;;;;1.98;1.50;;;;;;;;;;5086896;28;20263;-54
2021/05/07 00:10:17;;;;;;;1.42;1.00;;;;;;;;;;5083801;28;20032;-48
2021/05/07 00:12:42;;;;;;;1.73;1.40;;;;;;;;;;5093381;28;20348;-53
2021/05/07 00:15:08;;;;;;;1.73;1.30;;;;;;;;;;5080947;28;20055;-54
2021/05/07 00:17:34;;;;;;;2.65;1.35;;;;;;;;;;5080491;28;20028;-53
2021/05/07 00:19:59;;;;;;;1.65;1.00;;;;;;;;;;5083084;28;20030;-52
2021/05/07 00:22:24;;;;;;;1.90;1.17;;;;;;;;;;5075595;28;20062;-51
2021/05/07 00:24:50;;;;;;;1.65;1.48;;;;;;;;;;5093642;28;20042;-54
2021/05/07 00:27:17;;;;;;;3.53;1.58;;;;;;;;;;5080216;28;20532;-54
2021/05/07 00:29:43;;;;;;;3.10;2.10;;;;;;;;;;5078642;28;20054;-49
2021/05/07 00:32:08;;;;;;;2.33;1.48;;;;;;;;;;5079852;28;20402;-53
2021/05/07 00:34:33;;;;;;;1.83;1.73;;;;;;;;;;5073948;28;20095;-51
2021/05/07 00:36:59;;;;;;;2.72;2.20;;;;;;;;;;5069232;28;20020;-54
2021/05/07 00:39:24;;;;;;;1.92;1.73;;;;;;;;;;5075054;28;20103;-53
2021/05/07 00:41:49;;;;;;;4.25;2.22;;;;;;;;;;5077485;28;20066;-54
2021/05/07 00:44:14;;;;;;;2.08;1.88;;;;;;;;;;5083747;28;20168;-53
2021/05/07 00:46:40;;;;;;;2.33;2.05;;;;;;;;;;5079902;28;20601;-52
2021/05/07 00:49:05;;;;;;;2.63;2.22;;;;;;;;;;5070016;28;20559;-49
2021/05/07 00:51:30;;;;;;;4.30;2.30;;;;;;;;;;5085627;28;20031;-54
2021/05/07 00:53:55;;;;;;;3.78;2.30;;;;;;;;;;5086207;28;20016;-55
2021/05/07 00:56:21;;;;;;;3.40;2.72;;;;;;;;;;5072854;28;20391;-52
2021/05/07 00:58:47;;;;;;;4.75;3.10;;;;;;;;;;5077445;28;20024;-56
2021/05/07 01:01:12;;;;;;;4.22;3.58;;;;;;;;;;5077512;28;20032;-51
2021/05/07 01:03:37;;;;;;;5.65;3.75;;;;;;;;;;5078007;28;20020;-52
2021/05/07 01:06:03;;;;;;;4.85;3.92;;;;;;;;;;5086368;28;20521;-53
2021/05/07 01:08:28;;;;;;;4.30;3.78;;;;;;;;;;5089406;28;20554;-53
2021/05/07 01:10:55;;;;;;;4.05;3.67;;;;;;;;;;5075570;28;20019;-51
2021/05/07 01:13:20;;;;;;;7.20;3.67;;;;;;;;;;5077295;28;20091;-55
2021/05/07 01:15:46;;;;;;;4.60;4.00;;;;;;;;;;5085151;28;20136;-55
2021/05/07 01:18:11;;;;;;;4.43;4.00;;;;;;;;;;5087908;28;20085;-49
2021/05/07 01:20:36;;;;;;;5.68;4.97;;;;;;;;;;5078865;28;20189;-54
2021/05/07 01:23:03;;;;;;;5.35;4.30;;;;;;;;;;5084145;28;20032;-53
2021/05/07 01:25:29;;;;;;;4.53;4.03;;;;;;;;;;5080191;28;20169;-55
2021/05/07 01:27:56;;;;;;;6.00;4.68;;;;;;;;;;5068365;28;20453;-56
2021/05/07 01:30:22;;;;;;;6.82;4.55;;;;;;;;;;5075996;28;20024;-52
2021/05/07 01:32:48;;;;;;;5.75;4.95;;;;;;;;;;5081551;28;20021;-51
2021/05/07 01:35:15;;;;;;;6.53;4.32;;;;;;;;;;5076586;28;20039;-53
2021/05/07 01:37:41;;;;;;;7.65;5.15;;;;;;;;;;5081840;28;20560;-52
2021/05/07 01:40:26;;;;;;;7.35;6.60;;;;;;;;;;5079722;28;20451;-53
2021/05/07 01:42:53;;;;;;;8.98;7.00;;;;;;;;;;5071903;28;20082;-56
2021/05/07 01:45:20;;;;;;;7.68;6.60;;;;;;;;;;5078295;28;20066;-54
2021/05/07 01:47:45;;;;;;;8.00;6.35;;;;;;;;;;5068929;28;20710;-53
2021/05/07 01:50:11;;;;;;;6.53;5.28;;;;;;;;;;5084881;28;20049;-54
2021/05/07 01:52:37;;;;;;;7.85;6.40;;;;;;;;;;5090601;28;20020;-55
2021/05/07 01:55:06;;;;;;;7.57;6.32;;;;;;;;;;5081841;28;20012;-53
2021/05/07 01:57:31;;;;;;;7.28;5.40;;;;;;;;;;5078029;28;20023;-55
2021/05/07 01:59:56;;;;;;;6.93;5.63;;;;;;;;;;5079481;28;20016;-54
2021/05/07 02:02:22;;;;;;;6.53;5.47;;;;;;;;;;5070333;28;20016;-54
2021/05/07 02:04:47;;;;;;;7.70;6.15;;;;;;;;;;5081650;28;20016;-49
2021/05/07 02:07:12;;;;;;;8.30;6.15;;;;;;;;;;5089240;28;20033;-48
2021/05/07 02:09:37;;;;;;;8.75;6.15;;;;;;;;;;5083085;28;20418;-52
2021/05/07 02:12:03;;;;;;;6.47;5.82;;;;;;;;;;5084819;28;20519;-53
2021/05/07 02:14:28;;;;;;;8.13;6.63;;;;;;;;;;5080633;28;20532;-51
2021/05/07 02:16:53;;;;;;;6.72;5.75;;;;;;;;;;5074815;28;20086;-52
2021/05/07 02:19:18;;;;;;;7.43;6.30;;;;;;;;;;5078000;28;20021;-52
2021/05/07 02:21:43;;;;;;;7.40;6.18;;;;;;;;;;5089856;28;20027;-50
2021/05/07 02:24:11;;;;;;;6.97;5.22;;;;;;;;;;5077588;28;20020;-51
2021/05/07 02:26:36;;;;;;;7.75;5.68;;;;;;;;;;5090153;28;20467;-51
2021/05/07 02:29:01;;;;;;;8.02;6.13;;;;;;;;;;5084545;28;20027;-51
2021/05/07 02:31:27;;;;;;;4.93;3.10;;;;;;;;;;5085863;28;20110;-52
2021/05/07 02:33:52;;;;;;;5.68;4.45;;;;;;;;;;5077315;28;20023;-50
2021/05/07 02:36:17;;;;;;;7.85;6.07;;;;;;;;;;5070596;28;20017;-48
2021/05/07 02:38:42;;;;;;;7.22;6.53;;;;;;;;;;5085509;28;20076;-54
2021/05/07 02:41:07;;;;;;;8.93;6.70;;;;;;;;;;5077410;28;20037;-52
2021/05/07 02:43:33;;;;;;;4.13;3.75;;;;;;;;;;5090507;28;20024;-52
2021/05/07 02:45:58;;;;;;;6.93;5.25;;;;;;;;;;5073518;28;20025;-49
2021/05/07 02:48:24;;;;;;;8.73;6.60;;;;;;;;;;5072985;28;20324;-54
2021/05/07 02:50:49;;;;;;;8.73;7.15;;;;;;;;;;5091160;28;20087;-53
2021/05/07 02:53:14;;;;;;;2.28;1.40;;;;;;;;;;5083484;28;20016;-54
2021/05/07 02:55:39;;;;;;;9.35;6.97;;;;;;;;;;5071377;28;20140;-50
2021/05/07 02:58:05;;;;;;;9.95;7.00;;;;;;;;;;5076461;28;20095;-53
2021/05/07 03:00:30;;;;;;;8.75;7.85;;;;;;;;;;5081255;28;20016;-48
2021/05/07 03:02:55;;;;;;;8.05;6.93;;;;;;;;;;5082054;28;20028;-52
2021/05/07 03:05:20;;;;;;;7.90;6.93;;;;;;;;;;5082454;28;20017;-54
2021/05/07 03:07:46;;;;;;;8.95;6.82;;;;;;;;;;5084725;28;20415;-54
2021/05/07 03:10:11;;;;;;;10.57;7.25;;;;;;;;;;5093741;28;20107;-52
2021/05/07 03:12:36;;;;;;;7.13;6.43;;;;;;;;;;5077050;28;20001;-52
2021/05/07 03:15:02;;;;;;;3.17;1.60;;;;;;;;;;5075932;28;20064;-52
2021/05/07 03:17:27;;;;;;;6.40;5.80;;;;;;;;;;5089369;28;20030;-49
2021/05/07 03:19:52;;;;;;;9.68;5.75;;;;;;;;;;5090846;28;20024;-55
2021/05/07 03:22:17;;;;;;;7.88;6.03;;;;;;;;;;5076448;28;20035;-51
2021/05/07 03:24:43;;;;;;;7.82;6.50;;;;;;;;;;5083378;28;20011;-51
2021/05/07 03:27:08;;;;;;;7.55;6.82;;;;;;;;;;5074554;28;20028;-53
2021/05/07 03:29:33;;;;;;;9.05;6.50;;;;;;;;;;5073802;28;20013;-47
2021/05/07 03:31:58;;;;;;;7.63;6.03;;;;;;;;;;5078252;28;20383;-54
2021/05/07 03:34:24;;;;;;;7.38;6.05;;;;;;;;;;5073117;28;20406;-55
2021/05/07 03:36:49;;;;;;;8.45;7.25;;;;;;;;;;5066005;28;20028;-53
2021/05/07 03:39:14;;;;;;;11.00;8.25;;;;;;;;;;5078878;28;20016;-55
2021/05/07 03:41:39;;;;;;;9.07;7.97;;;;;;;;;;5080482;28;20020;-53
2021/05/07 03:44:05;;;;;;;11.48;8.23;;;;;;;;;;5083057;28;20032;-56
2021/05/07 03:46:30;;;;;;;6.97;5.95;;;;;;;;;;5076425;28;20028;-53
2021/05/07 03:48:55;;;;;;;6.25;4.82;;;;;;;;;;5070426;28;20524;-54
2021/05/07 03:51:20;;;;;;;8.45;6.40;;;;;;;;;;5072798;28;20490;-53
2021/05/07 03:53:46;;;;;;;9.43;6.72;;;;;;;;;;5063382;28;20020;-55
2021/05/07 03:56:11;;;;;;;10.95;7.38;;;;;;;;;;5073414;28;20028;-55
2021/05/07 03:58:36;;;;;;;9.77;8.25;;;;;;;;;;5071727;28;20024;-52
2021/05/07 04:01:03;;;;;;;9.18;7.38;;;;;;;;;;5085186;28;20016;-56
2021/05/07 04:03:29;;;;;;;7.95;7.10;;;;;;;;;;5073070;28;20375;-51
2021/05/07 04:05:55;;;;;;;9.88;8.38;;;;;;;;;;5072739;28;20020;-52
2021/05/07 04:08:24;;;;;;;9.60;5.80;;;;;;;;;;5073181;28;20024;-55
2021/05/07 04:11:05;;;;;;;16.42;11.23;;;;;;;;;;5075846;28;20056;-53
2021/05/07 04:13:39;;;;;;;22.48;15.65;;;;;;;;;;5084335;28;20474;-53
2021/05/07 04:16:06;;;;;;;22.30;15.50;;;;;;;;;;5084707;28;20102;-53
2021/05/07 04:18:32;;;;;;;21.05;13.93;;;;;;;;;;5077893;28;20029;-53
2021/05/07 04:20:57;;;;;;;18.38;11.55;;;;;;;;;;5072442;28;20094;-53
2021/05/07 04:23:22;;;;;;;16.95;11.30;;;;;;;;;;5062264;28;20020;-52
2021/05/07 04:25:49;;;;;;;14.73;10.35;;;;;;;;;;5091606;28;20099;-50
2021/05/07 04:28:15;;;;;;;11.52;8.32;;;;;;;;;;5085520;28;20016;-55
2021/05/07 04:30:40;;;;;;;12.07;9.40;;;;;;;;;;5072936;28;20556;-51
2021/05/07 04:33:05;;;;;;;7.90;5.35;;;;;;;;;;5072509;28;20035;-55
2021/05/07 04:35:30;;;;;;;11.77;9.07;;;;;;;;;;5071521;28;20023;-53
2021/05/07 04:37:56;;;;;;;10.02;9.02;;;;;;;;;;5070878;28;20351;-50
2021/05/07 04:40:21;;;;;;;11.07;8.50;;;;;;;;;;5072204;28;20039;-54
2021/05/07 04:42:46;;;;;;;12.68;9.50;;;;;;;;;;5072112;28;20529;-55
2021/05/07 04:45:11;;;;;;;13.10;10.50;;;;;;;;;;5080179;28;20364;-54
2021/05/07 04:47:37;;;;;;;11.73;9.02;;;;;;;;;;5083919;28;20613;-55
2021/05/07 04:50:03;;;;;;;12.38;10.32;;;;;;;;;;5073502;28;20012;-56
2021/05/07 04:52:28;;;;;;;11.80;10.38;;;;;;;;;;5071447;28;20024;-55
2021/05/07 04:54:53;;;;;;;10.63;9.40;;;;;;;;;;5075083;28;20051;-53
2021/05/07 04:57:18;;;;;;;9.35;7.45;;;;;;;;;;5072154;28;20028;-53
2021/05/07 04:59:44;;;;;;;11.75;10.50;;;;;;;;;;5074693;28;20054;-55
2021/05/07 05:02:09;;;;;;;13.55;10.77;;;;;;;;;;5073285;28;20032;-50
2021/05/07 05:04:34;;;;;;;11.77;8.85;;;;;;;;;;5073861;28;20024;-51
2021/05/07 05:07:00;;;;;;;12.32;9.23;;;;;;;;;;5081462;28;20455;-51
2021/05/07 05:09:25;;;;;;;11.23;9.60;;;;;;;;;;5068249;28;20551;-55
2021/05/07 05:11:50;;;;;;;12.50;8.77;;;;;;;;;;5080422;28;20012;-54
2021/05/07 05:14:15;;;;;;;15.38;11.18;;;;;;;;;;5082309;28;20032;-51
2021/05/07 05:16:41;;;;;;;10.77;8.20;;;;;;;;;;5072267;28;20029;-53
2021/05/07 05:19:06;;;;;;;10.63;8.80;;;;;;;;;;5068483;28;20056;-53
2021/05/07 05:21:31;;;;;;;11.38;8.93;;;;;;;;;;5072329;28;20056;-51
2021/05/07 05:23:56;;;;;;;11.75;9.65;;;;;;;;;;5080890;28;20047;-52
2021/05/07 05:26:22;;;;;;;14.98;10.98;;;;;;;;;;5090523;28;20281;-56
2021/05/07 05:28:47;;;;;;;9.07;7.13;;;;;;;;;;5073775;28;20020;-51
2021/05/07 05:31:13;;;;;;;11.25;9.63;;;;;;;;;;5076198;28;20044;-55
2021/05/07 05:33:38;;;;;;;3.80;2.55;;;;;;;;;;5072184;28;20099;-51
2021/05/07 05:36:04;;;;;;;5.75;3.85;;;;;;;;;;5087554;28;20463;-53
2021/05/07 05:38:29;;;;;;;6.75;6.03;;;;;;;;;;5075413;28;20034;-50
2021/05/07 05:40:54;;;;;;;6.65;5.90;;;;;;;;;;5091127;28;20028;-53
2021/05/07 05:43:20;;;;;;;6.93;6.22;;;;;;;;;;5079245;28;20016;-51
2021/05/07 05:45:45;;;;;;;7.05;5.95;;;;;;;;;;5077760;28;20563;-55
2021/05/07 05:48:14;;;;;;;5.05;4.55;;;;;;;;;;5068514;28;20417;-56
2021/05/07 05:50:42;;;;;;;5.57;4.57;;;;;;;;;;5070789;28;20107;-55
2021/05/07 05:53:08;;;;;;;3.45;3.15;;;;;;;;;;5076924;28;20020;-56
2021/05/07 05:55:33;;;;;;;4.35;3.33;;;;;;;;;;5072246;28;20016;-54
2021/05/07 05:57:58;;;;;;;8.65;7.53;;;;;;;;;;5076214;28;20020;-54
2021/05/07 06:00:24;;;;;;;8.40;6.45;;;;;;;;;;5087120;28;20091;-55
2021/05/07 06:02:49;;;;;;;9.05;7.85;;;;;;;;;;5070765;28;20024;-53
2021/05/07 06:05:15;;;;;;;12.35;10.50;;;;;;;;;;5072738;28;20103;-55
2021/05/07 06:07:41;;;;;;;9.52;7.70;;;;;;;;;;5063803;28;20020;-54
2021/05/07 06:10:07;;;;;;;11.98;8.60;;;;;;;;;;5078846;28;20088;-54
2021/05/07 06:12:33;;;;;;;16.33;11.85;;;;;;;;;;5073256;28;20107;-51
2021/05/07 06:14:58;;;;;;;14.38;10.13;;;;;;;;;;5086050;28;20182;-51
2021/05/07 06:17:24;;;;;;;12.63;9.95;;;;;;;;;;5089269;28;20024;-57
2021/05/07 06:19:49;;;;;;;10.40;8.55;;;;;;;;;;5077604;28;20375;-49
2021/05/07 06:22:14;;;;;;;5.05;4.15;;;;;;;;;;5073152;28;20028;-54
2021/05/07 06:24:39;;;;;;;10.18;8.63;;;;;;;;;;5078369;28;20379;-52
2021/05/07 06:27:05;;;;;;;6.45;5.15;;;;;;;;;;5073111;28;20847;-55
2021/05/07 06:29:30;;;;;;;8.10;6.95;;;;;;;;;;5074533;28;20017;-49
2021/05/07 06:31:55;;;;;;;10.25;9.13;;;;;;;;;;5081613;28;20038;-55
2021/05/07 06:34:21;;;;;;;7.32;6.63;;;;;;;;;;5075642;28;20016;-53
2021/05/07 06:36:46;;;;;;;6.90;6.03;;;;;;;;;;5070922;28;20099;-52
2021/05/07 06:39:11;;;;;;;2.47;2.20;;;;;;;;;;5078500;28;20071;-56
2021/05/07 06:41:37;;;;;;;6.28;4.25;;;;;;;;;;5081679;28;20502;-56
2021/05/07 06:44:03;;;;;;;4.53;4.13;;;;;;;;;;5088933;28;20421;-53
2021/05/07 06:46:28;;;;;;;4.82;3.75;;;;;;;;;;5076183;28;20066;-51
2021/05/07 06:48:53;;;;;;;4.97;2.05;;;;;;;;;;5083184;28;20028;-53
2021/05/07 06:51:19;;;;;;;3.88;3.42;;;;;;;;;;5084919;28;20075;-52
2021/05/07 06:53:44;;;;;;;5.97;5.40;;;;;;;;;;5088122;28;20019;-54
2021/05/07 06:56:10;;;;;;;3.65;3.13;;;;;;;;;;5075417;28;20563;-54
2021/05/07 06:58:35;;;;;;;4.45;3.80;;;;;;;;;;5081643;28;22291;-55
2021/05/07 07:01:00;;;;;;;7.20;5.07;;;;;;;;;;5080125;28;20103;-55
2021/05/07 07:03:25;;;;;;;5.18;4.63;;;;;;;;;;5077232;28;20044;-52
2021/05/07 07:05:51;;;;;;;3.90;3.40;;;;;;;;;;5092883;28;20023;-52
2021/05/07 07:08:16;;;;;;;3.92;3.63;;;;;;;;;;5090049;28;20065;-53
2021/05/07 07:10:41;;;;;;;4.32;4.03;;;;;;;;;;5080527;28;20027;-54
2021/05/07 07:13:06;;;;;;;3.97;2.88;;;;;;;;;;5093843;28;20023;-55
2021/05/07 07:15:31;;;;;;;4.35;3.95;;;;;;;;;;5075950;28;20055;-51
2021/05/07 07:17:57;;;;;;;5.97;4.97;;;;;;;;;;5089804;28;20027;-54
2021/05/07 07:20:22;;;;;;;1.88;1.20;;;;;;;;;;5092250;28;20474;-56
2021/05/07 07:22:47;;;;;;;1.95;1.80;;;;;;;;;;5074051;28;20130;-51
2021/05/07 07:25:13;;;;;;;1.77;1.33;;;;;;;;;;5078641;28;20419;-53
2021/05/07 07:27:38;;;;;;;2.88;2.17;;;;;;;;;;5073742;28;20115;-50
2021/05/07 07:30:04;;;;;;;4.90;3.25;;;;;;;;;;5091265;28;20060;-55
2021/05/07 07:32:29;;;;;;;1.23;0.88;;;;;;;;;;5092907;28;20024;-55
2021/05/07 07:34:59;;;;;;;1.30;1.17;;;;;;;;;;5079654;28;20025;-53
2021/05/07 07:37:24;;;;;;;1.60;1.35;;;;;;;;;;5073628;28;20051;-53
2021/05/07 07:39:49;;;;;;;2.45;1.65;;;;;;;;;;5072677;28;20113;-49
2021/05/07 07:42:14;;;;;;;0.98;0.63;;;;;;;;;;5091831;28;20070;-53
2021/05/07 07:44:40;;;;;;;2.42;1.10;;;;;;;;;;5093217;28;20121;-52
2021/05/07 07:47:05;;;;;;;1.30;1.00;;;;;;;;;;5092926;28;20020;-53
2021/05/07 07:49:30;;;;;;;1.42;1.30;;;;;;;;;;5088113;28;20020;-51
2021/05/07 07:51:58;;;;;;;1.30;1.00;;;;;;;;;;5084020;28;20024;-57
2021/05/07 07:54:23;;;;;;;0.98;0.88;;;;;;;;;;5091793;28;20022;-53
2021/05/07 07:56:49;;;;;;;1.42;1.27;;;;;;;;;;5092923;28;20161;-54
2021/05/07 07:59:14;;;;;;;1.50;1.40;;;;;;;;;;5071880;28;20024;-52
2021/05/07 08:01:39;;;;;;;1.80;1.65;;;;;;;;;;5074718;28;20016;-57
2021/05/07 08:04:04;;;;;;;1.50;1.40;;;;;;;;;;5072532;28;20016;-53
2021/05/07 08:06:30;;;;;;;1.90;1.80;;;;;;;;;;5079493;28;20020;-57
2021/05/07 08:08:55;;;;;;;1.27;1.10;;;;;;;;;;5072652;28;20024;-55
2021/05/07 08:11:20;;;;;;;1.77;1.50;;;;;;;;;;5081248;28;20019;-51
2021/05/07 08:13:45;;;;;;;1.20;1.10;;;;;;;;;;5078816;28;20528;-50
2021/05/07 08:16:11;;;;;;;2.03;1.00;;;;;;;;;;5073503;28;20499;-53
2021/05/07 08:18:36;;;;;;;1.88;0.73;;;;;;;;;;5070405;28;20051;-50
2021/05/07 08:21:01;;;;;;;1.30;0.90;;;;;;;;;;5088168;28;20471;-54
2021/05/07 08:23:27;;;;;;;1.05;0.93;;;;;;;;;;5072878;28;20532;-54
2021/05/07 08:25:52;;;;;;;1.45;1.33;;;;;;;;;;5073314;28;20052;-52
2021/05/07 08:28:17;;;;;;;1.60;1.50;;;;;;;;;;5084043;28;20023;-55
2021/05/07 08:30:42;;;;;;;1.60;1.50;;;;;;;;;;5075447;28;20024;-55
2021/05/07 08:33:08;;;;;;;1.20;1.00;;;;;;;;;;5092256;28;20103;-51
2021/05/07 08:35:33;;;;;;;2.38;2.17;;;;;;;;;;5084082;28;20066;-52
2021/05/07 08:37:59;;;;;;;1.40;1.30;;;;;;;;;;5075940;28;20024;-54
2021/05/07 08:40:25;;;;;;;1.33;1.15;;;;;;;;;;5083235;28;20120;-49
2021/05/07 08:42:50;;;;;;;1.17;0.77;;;;;;;;;;5077776;28;20021;-53
2021/05/07 08:45:16;;;;;;;0.80;0.80;;;;;;;;;;5073949;28;20028;-52
2021/05/07 08:47:43;;;;;;;0.75;0.50;;;;;;;;;;5071942;28;20357;-53
2021/05/07 08:50:09;;;;;;;0.47;0.47;;;;;;;;;;5078608;28;21158;-52
2021/05/07 08:52:35;;;;;;;0.50;0.50;;;;;;;;;;5079304;28;20024;-53
2021/05/07 08:55:00;;;;;;;0.75;0.30;;;;;;;;;;5075714;28;20076;-52
2021/05/07 08:57:26;;;;;;;1.90;1.10;;;;;;;;;;5065133;28;20024;-52
2021/05/07 08:59:51;;;;;;;0.50;0.20;;;;;;;;;;5076999;28;20081;-52
2021/05/07 09:02:24;;;;;;;1.00;0.82;;;;;;;;;;5080815;28;20074;-53
2021/05/07 09:04:50;;;;;;;0.40;0.30;;;;;;;;;;5075129;28;20052;-50
2021/05/07 09:07:15;;;;;;;0.57;0.25;;;;;;;;;;5077742;28;20012;-52
2021/05/07 09:09:48;;;;;;;0.52;0.40;;;;;;;;;;5076960;28;20375;-52
2021/05/07 09:12:23;;;;;;;0.60;0.60;;;;;;;;;;5078328;28;20023;-56
2021/05/07 09:14:48;;;;;;;0.93;0.77;;;;;;;;;;5074638;28;20445;-49
2021/05/07 09:17:17;;;;;;;1.50;1.20;;;;;;;;;;5078451;28;20028;-51
2021/05/07 09:19:43;;;;;;;1.23;1.10;;;;;;;;;;5074644;28;20032;-51
2021/05/07 09:22:08;;;;;;;1.52;1.20;;;;;;;;;;5076018;28;20778;-53
2021/05/07 09:24:34;;;;;;;1.75;1.42;;;;;;;;;;5080284;28;20518;-52
2021/05/07 09:27:01;;;;;;;1.83;1.10;;;;;;;;;;5074148;28;20074;-52
2021/05/07 09:29:27;;;;;;;0.73;0.55;;;;;;;;;;5074003;28;20024;-50
2021/05/07 09:31:53;;;;;;;0.95;0.63;;;;;;;;;;5088545;28;20086;-51
2021/05/07 09:34:19;;;;;;;1.17;0.75;;;;;;;;;;5082038;28;20028;-55
2021/05/07 09:36:44;;;;;;;3.05;1.70;;;;;;;;;;5076271;28;20073;-55
2021/05/07 09:39:11;;;;;;;1.42;1.00;;;;;;;;;;5079165;28;20028;-49
2021/05/07 09:41:40;;;;;;;1.10;0.95;;;;;;;;;;5083070;28;20032;-55
2021/05/07 09:44:15;;;;;;;1.48;1.38;;;;;;;;;;5079637;28;20116;-53
2021/05/07 09:46:40;;;;;;;1.40;0.98;;;;;;;;;;5070983;28;20016;-52
2021/05/07 09:49:05;;;;;;;1.60;1.17;;;;;;;;;;5068857;28;20085;-54
2021/05/07 09:51:41;;;;;;;1.38;1.10;;;;;;;;;;5070377;28;20017;-55
2021/05/07 09:54:07;;;;;;;2.75;1.13;;;;;;;;;;5071783;28;20467;-56
2021/05/07 09:56:32;;;;;;;2.88;1.15;;;;;;;;;;5090965;28;20046;-55
2021/05/07 09:58:59;;;;;;;1.13;0.70;;;;;;;;;;5071723;28;20138;-55
2021/05/07 10:01:24;;;;;;;1.08;0.85;;;;;;;;;;5070421;28;20024;-55
2021/05/07 10:03:49;;;;;;;0.93;0.73;;;;;;;;;;5071162;28;20055;-51
2021/05/07 10:06:17;;;;;;;1.20;1.08;;;;;;;;;;5070680;28;20052;-51
2021/05/07 10:08:43;;;;;;;2.42;2.22;;;;;;;;;;5067886;28;20039;-54
2021/05/07 10:11:09;;;;;;;1.20;1.00;;;;;;;;;;5071695;28;20013;-55
2021/05/07 10:13:35;;;;;;;0.98;0.82;;;;;;;;;;5084532;28;20046;-52
2021/05/07 10:16:01;;;;;;;3.05;0.98;;;;;;;;;;5085970;28;20040;-53
2021/05/07 10:18:26;;;;;;;0.63;0.52;;;;;;;;;;5072933;28;20043;-51
2021/05/07 10:20:59;;;;;;;1.42;1.30;;;;;;;;;;5071275;28;20052;-48
2021/05/07 10:23:24;;;;;;;1.77;1.67;;;;;;;;;;5079856;28;20012;-50
2021/05/07 10:25:55;;;;;;;1.83;1.60;;;;;;;;;;5090837;28;20023;-51
2021/05/07 10:28:21;;;;;;;0.93;0.60;;;;;;;;;;5081594;28;20464;-50
2021/05/07 10:30:46;;;;;;;1.38;1.27;;;;;;;;;;5088508;28;20027;-50
2021/05/07 10:33:18;;;;;;;0.90;0.75;;;;;;;;;;5090974;28;20016;-54
2021/05/07 10:35:47;;;;;;;1.15;1.05;;;;;;;;;;5090379;28;20024;-54
2021/05/07 10:38:17;;;;;;;0.57;0.43;;;;;;;;;;5076512;28;20028;-54
2021/05/07 10:40:43;;;;;;;1.20;1.00;;;;;;;;;;5069910;28;20029;-54
2021/05/07 10:43:09;;;;;;;2.08;1.67;;;;;;;;;;5086892;28;20884;-53
2021/05/07 10:45:38;;;;;;;2.35;1.88;;;;;;;;;;5085116;28;20103;-53
2021/05/07 10:48:11;;;;;;;1.40;0.95;;;;;;;;;;5073820;28;20042;-54
2021/05/07 10:50:39;;;;;;;1.25;0.60;;;;;;;;;;5084240;28;20028;-51
2021/05/07 10:53:04;;;;;;;0.90;0.80;;;;;;;;;;5070356;28;20021;-52
2021/05/07 10:55:33;;;;;;;1.00;0.90;;;;;;;;;;5070470;28;20017;-53
2021/05/07 10:58:01;;;;;;;2.15;0.75;;;;;;;;;;5068193;28;20016;-50
2021/05/07 11:00:33;;;;;;;1.58;0.60;;;;;;;;;;5071693;28;20028;-54
2021/05/07 11:02:58;;;;;;;0.80;0.80;;;;;;;;;;5077023;28;20020;-54
2021/05/07 11:05:37;;;;;;;1.08;0.82;;;;;;;;;;5072369;28;20387;-51
2021/05/07 11:08:02;;;;;;;1.60;1.10;;;;;;;;;;5067554;28;20074;-51
2021/05/07 11:10:28;;;;;;;1.77;1.15;;;;;;;;;;5069705;28;20023;-49
2021/05/07 11:12:53;;;;;;;1.48;0.50;;;;;;;;;;5089209;28;20095;-55
2021/05/07 11:15:19;;;;;;;1.63;1.00;;;;;;;;;;5075565;28;20484;-53
2021/05/07 11:17:44;;;;;;;2.28;1.27;;;;;;;;;;5078065;28;20009;-53
2021/05/07 11:20:11;;;;;;;1.30;1.20;;;;;;;;;;5088597;28;20042;-52
2021/05/07 11:22:39;;;;;;;1.85;1.02;;;;;;;;;;5071713;28;20031;-55
2021/05/07 11:25:04;;;;;;;1.55;1.45;;;;;;;;;;5076075;28;20020;-56
2021/05/07 11:27:30;;;;;;;2.72;1.85;;;;;;;;;;5085048;28;20031;-52
2021/05/07 11:29:58;;;;;;;2.72;1.95;;;;;;;;;;5072398;28;20099;-54
2021/05/07 11:32:24;;;;;;;2.95;2.22;;;;;;;;;;5072970;28;20091;-52
2021/05/07 11:34:59;;;;;;;3.47;2.53;;;;;;;;;;5083245;28;20024;-52
2021/05/07 11:37:25;;;;;;;3.95;2.42;;;;;;;;;;5075181;28;20585;-51
2021/05/07 11:40:00;;;;;;;1.63;1.52;;;;;;;;;;5088888;28;20028;-53
2021/05/07 11:42:26;;;;;;;1.77;0.88;;;;;;;;;;5093493;28;20493;-54
2021/05/07 11:44:51;;;;;;;2.08;1.50;;;;;;;;;;5082570;28;20025;-51
2021/05/07 11:47:16;;;;;;;2.90;2.63;;;;;;;;;;5078880;28;20022;-54
2021/05/07 11:49:46;;;;;;;2.72;1.77;;;;;;;;;;5088690;28;20016;-52
2021/05/07 11:52:12;;;;;;;4.13;3.30;;;;;;;;;;5090373;28;20023;-54
2021/05/07 11:54:38;;;;;;;2.78;1.63;;;;;;;;;;5090732;28;20406;-54
2021/05/07 11:57:03;;;;;;;3.20;2.90;;;;;;;;;;5084146;28;20474;-49
2021/05/07 11:59:28;;;;;;;2.53;1.90;;;;;;;;;;5081517;28;20028;-53
2021/05/07 12:01:53;;;;;;;4.40;3.25;;;;;;;;;;5073204;28;20459;-54
2021/05/07 12:04:19;;;;;;;1.85;1.50;;;;;;;;;;5072835;28;20032;-54
2021/05/07 12:06:45;;;;;;;4.68;3.75;;;;;;;;;;5072614;28;20030;-50
2021/05/07 12:09:12;;;;;;;2.38;1.95;;;;;;;;;;5071750;28;20028;-54
2021/05/07 12:11:37;;;;;;;3.88;2.97;;;;;;;;;;5073598;28;20021;-55
2021/05/07 12:14:09;;;;;;;3.22;1.85;;;;;;;;;;5076094;28;20035;-54
2021/05/07 12:16:34;;;;;;;2.88;1.73;;;;;;;;;;5085671;28;20135;-52
2021/05/07 12:19:00;;;;;;;2.78;1.05;;;;;;;;;;5079015;28;20454;-51
2021/05/07 12:21:25;;;;;;;2.95;2.40;;;;;;;;;;5085029;28;20550;-53
2021/05/07 12:23:51;;;;;;;1.35;1.25;;;;;;;;;;5079079;28;20031;-55
2021/05/07 12:26:18;;;;;;;2.95;1.67;;;;;;;;;;5072827;28;20074;-52
2021/05/07 12:28:57;;;;;;;2.08;1.48;;;;;;;;;;5071247;28;20024;-51
2021/05/07 12:31:30;;;;;;;2.55;2.35;;;;;;;;;;5073186;28;20031;-55
2021/05/07 12:33:56;;;;;;;2.83;2.53;;;;;;;;;;5084277;28;20375;-56
2021/05/07 12:36:21;;;;;;;2.95;2.45;;;;;;;;;;5076072;28;20028;-54
2021/05/07 12:38:47;;;;;;;3.22;2.60;;;;;;;;;;5086459;28;20031;-55
2021/05/07 12:41:13;;;;;;;5.15;3.40;;;;;;;;;;5092998;28;20376;-56
2021/05/07 12:43:38;;;;;;;2.22;1.60;;;;;;;;;;5090362;28;20032;-55
2021/05/07 12:46:04;;;;;;;3.47;2.55;;;;;;;;;;5072717;28;20041;-51
2021/05/07 12:48:29;;;;;;;2.45;2.10;;;;;;;;;;5078099;28;20012;-56
2021/05/07 12:50:54;;;;;;;2.67;1.85;;;;;;;;;;5092446;28;20021;-54
2021/05/07 12:53:21;;;;;;;4.30;2.80;;;;;;;;;;5092583;28;20019;-60
2021/05/07 12:55:47;;;;;;;3.58;3.28;;;;;;;;;;5092015;28;20510;-60
2021/05/07 12:58:13;;;;;;;3.20;2.90;;;;;;;;;;5077307;28;20629;-56
2021/05/07 13:00:40;;;;;;;4.20;2.30;;;;;;;;;;5077367;28;20042;-59
2021/05/07 13:03:05;;;;;;;4.50;1.80;;;;;;;;;;5072195;28;20035;-58
2021/05/07 13:05:31;;;;;;;3.08;2.88;;;;;;;;;;5060580;28;20106;-59
2021/05/07 13:07:56;;;;;;;2.53;2.33;;;;;;;;;;5083422;28;20757;-57
2021/05/07 13:10:21;;;;;;;2.92;2.40;;;;;;;;;;5089245;28;20467;-59
2021/05/07 13:12:47;;;;;;;3.05;2.08;;;;;;;;;;5092279;28;20020;-60
2021/05/07 13:15:12;;;;;;;1.50;1.20;;;;;;;;;;5073887;28;20407;-58
2021/05/07 13:17:38;;;;;;;3.88;3.33;;;;;;;;;;5083112;28;20020;-57
2021/05/07 13:20:03;;;;;;;2.47;1.95;;;;;;;;;;5070933;28;20463;-57
2021/05/07 13:22:29;;;;;;;2.45;2.25;;;;;;;;;;5072579;28;20476;-58
2021/05/07 13:24:54;;;;;;;2.15;2.00;;;;;;;;;;5082717;28;20035;-55
2021/05/07 13:27:20;;;;;;;2.78;2.58;;;;;;;;;;5071623;28;20352;-55
2021/05/07 13:29:45;;;;;;;2.67;2.47;;;;;;;;;;5078012;28;20020;-55
2021/05/07 13:32:12;;;;;;;2.28;1.15;;;;;;;;;;5076790;28;20540;-60
2021/05/07 13:34:38;;;;;;;1.70;1.60;;;;;;;;;;5072067;28;20035;-57
2021/05/07 13:37:03;;;;;;;1.60;1.50;;;;;;;;;;5073732;28;20379;-56
2021/05/07 13:39:28;;;;;;;2.65;2.30;;;;;;;;;;5066271;28;20024;-56
2021/05/07 13:41:53;;;;;;;1.90;0.82;;;;;;;;;;5091891;28;20020;-57
2021/05/07 13:44:18;;;;;;;2.67;1.85;;;;;;;;;;5091934;28;20028;-55
2021/05/07 13:46:44;;;;;;;1.88;1.00;;;;;;;;;;5076342;28;20039;-56
2021/05/07 13:49:09;;;;;;;1.73;1.63;;;;;;;;;;5067997;28;20030;-55
2021/05/07 13:51:34;;;;;;;1.98;1.70;;;;;;;;;;5071260;28;20028;-58
2021/05/07 13:53:59;;;;;;;3.13;2.30;;;;;;;;;;5071674;28;20012;-56
2021/05/07 13:56:24;;;;;;;2.70;1.98;;;;;;;;;;5074358;28;20031;-58
2021/05/07 13:58:50;;;;;;;2.20;1.88;;;;;;;;;;5079429;28;20095;-54
2021/05/07 14:01:15;;;;;;;2.47;2.13;;;;;;;;;;5071952;28;20027;-55
2021/05/07 14:03:40;;;;;;;2.42;2.22;;;;;;;;;;5073757;28;20385;-54
2021/05/07 14:06:06;;;;;;;2.58;2.30;;;;;;;;;;5083349;28;20417;-55
2021/05/07 14:08:31;;;;;;;2.33;1.80;;;;;;;;;;5079022;28;20525;-52
2021/05/07 14:10:57;;;;;;;1.67;1.52;;;;;;;;;;5090706;28;20069;-52
2021/05/07 14:13:23;;;;;;;1.83;1.60;;;;;;;;;;5082671;28;20070;-54
2021/05/07 14:15:48;;;;;;;1.92;1.83;;;;;;;;;;5071536;28;20044;-51
2021/05/07 14:18:13;;;;;;;1.73;1.35;;;;;;;;;;5067357;28;20383;-54
2021/05/07 14:20:39;;;;;;;2.67;2.47;;;;;;;;;;5079070;28;20048;-55
2021/05/07 14:23:07;;;;;;;2.72;2.42;;;;;;;;;;5075537;28;20016;-55
2021/05/07 14:25:32;;;;;;;2.88;1.90;;;;;;;;;;5075543;28;20645;-52
2021/05/07 14:27:57;;;;;;;3.15;2.85;;;;;;;;;;5081434;28;20027;-54
2021/05/07 14:30:23;;;;;;;2.75;2.53;;;;;;;;;;5076752;28;20288;-52
2021/05/07 14:32:48;;;;;;;1.73;1.63;;;;;;;;;;5076154;28;20028;-55